Arthur, ND (58006)

12:30 PM CST on February 20, 2017 (GMT -0600)
PFS Hunter | | Change Station
Active Advisory: Flood Warning

Elev 974 ft 47.15 °N, 97.21 °W | Updated 14 seconds ago

Overcast
Overcast
38.1 °F
Feels Like 32 °F
N
8.5
Wind Variable Wind from NW
Gusts 14.0 mph

Today
High -- | Low -- °F
--% Chance of Precip.
Yesterday
High -- | Low -- °F
Precip. -- in
Pressure 29.61 in
Visibility 2.5 miles
Clouds Overcast 500 ft
Windchill 32 °F
Dew Point 36 °F
Humidity 94%
Rainfall 0.11 in
Snow Depth Not available.
7:24 AM 6:01 PM
Waning Crescent, 32% visible
SPECI KFAR 201803Z 22009KT 2 1/2SM BR OVC005 10/09 A2961 RMK AO2 T01000094
Pressure 29.61 in
Visibility 2.5 miles
Clouds Overcast 500 ft
Windchill 32 °F
Dew Point 36 °F
Humidity 94%
Rainfall 0.11 in
Snow Depth Not available.
7:24 AM 6:01 PM
Waning Crescent, 32% visible
SPECI KFAR 201803Z 22009KT 2 1/2SM BR OVC005 10/09 A2961 RMK AO2 T01000094

Get Your Daily Forecast Email!

Thanks for signing up!

Be on the lookout for a verification email in your inbox.

You'll start receiving the daily forecast at 8 AM.

×

10-Day Weather Forecast

Almanac

Astronomy

Feb. 20, 2017 Rise Set
Actual Time
Civil Twilight
Nautical Twilight
Astronomical Twilight
Moon
Length of Visible Light
Length of Day
Tomorrow will be .
, % of the Moon is Illuminated

Today's Extremes

State Highs State Lows

Community

WunderPhotos

Upload Photos

1,962,540 photos uploaded!

WunderBlog® & News

Nearby

Air Quality

  Air Quality AQ Index Pollutant
Not available.

Snow Depth

Station Depth Elevation

Earthquake Activity

City Distance Mag. Time & Date
Minimum magnitude displayed is 2.5.

Coastal Water Temperatures

Place Temperature

Stations

Nearby Weather Stations

Station Location Temp. Windchill Dew Point Humidity Wind Precip. Elev Updated Type
                   

Watches & Warnings

Flood Warning
Issued: 11:27 AM CST Feb. 20, 2017 – National Weather Service

The National Weather Service in Grand Forks, ND has issued a
new Flood Warning for...
* ... Fargo... on the Red River
* from this evening until further notice.
* At 10:15 am Monday the stage was 17.7 feet.
* Minor flood stage is 18.0 feet.
* For the next 7 days... minor flooding is forecast.
* Forecast... rise above flood stage by Monday evening and continue to
rise to near 21.0 feet by Thursday evening.


Lat... Lon 4715 9673 4724 9683 4724 9694 4676 9689 4677 9671




1127 am CST Mon Feb 20 2017

The National Weather Service in Grand Forks, ND has issued a
new Flood Warning for...
* ... Mapleton... on the Maple River
* from this evening to Thursday morning.
* At 10:15 am Monday the stage was 903.5 feet.
* Minor flood stage is 905.0 feet.
* For the next 7 days... minor flooding is forecast.
* Forecast... rise above flood stage by Monday night and continue to
rise to near 905.5 feet by Tuesday early afternoon. The river will
fall below flood stage by early Wednesday morning.


Lat... Lon 4694 9710 4679 9732 4670 9722 4690 9691
      4700 9698


Lee/bp